sensor_id;sensor_type;location;lat;lon;timestamp;temperature;humidity
41678;DHT22;27364;49.026;8.712;2022-09-09T02:01:30;16.50;99.90
41678;DHT22;27364;49.026;8.712;2022-09-09T02:04:13;16.60;99.90
41678;DHT22;27364;49.026;8.712;2022-09-09T02:06:42;16.70;99.90
41678;DHT22;27364;49.026;8.712;2022-09-09T02:09:11;16.70;99.90
41678;DHT22;27364;49.026;8.712;2022-09-09T02:11:38;16.80;99.90
41678;DHT22;27364;49.026;8.712;2022-09-09T02:14:12;16.80;99.90
41678;DHT22;27364;49.026;8.712;2022-09-09T02:16:48;16.90;99.90
41678;DHT22;27364;49.026;8.712;2022-09-09T02:19:27;16.80;99.90
41678;DHT22;27364;49.026;8.712;2022-09-09T02:21:55;16.70;99.90
41678;DHT22;27364;49.026;8.712;2022-09-09T02:24:21;16.60;99.90
41678;DHT22;27364;49.026;8.712;2022-09-09T02:26:51;16.60;99.90
41678;DHT22;27364;49.026;8.712;2022-09-09T02:29:47;16.40;99.90
41678;DHT22;27364;49.026;8.712;2022-09-09T02:32:15;16.50;99.90
41678;DHT22;27364;49.026;8.712;2022-09-09T02:34:48;16.40;99.90
41678;DHT22;27364;49.026;8.712;2022-09-09T02:37:18;16.30;99.90
41678;DHT22;27364;49.026;8.712;2022-09-09T02:39:44;16.40;99.90
41678;DHT22;27364;49.026;8.712;2022-09-09T02:42:10;16.40;99.90
41678;DHT22;27364;49.026;8.712;2022-09-09T02:44:36;16.40;99.90
41678;DHT22;27364;49.026;8.712;2022-09-09T02:47:21;16.40;99.90
41678;DHT22;27364;49.026;8.712;2022-09-09T02:50:12;16.20;99.90
41678;DHT22;27364;49.026;8.712;2022-09-09T02:52:47;16.30;99.90
41678;DHT22;27364;49.026;8.712;2022-09-09T02:57:58;16.30;99.90
41678;DHT22;27364;49.026;8.712;2022-09-09T03:00:28;16.30;99.90
41678;DHT22;27364;49.026;8.712;2022-09-09T03:02:54;16.30;99.90
41678;DHT22;27364;49.026;8.712;2022-09-09T03:05:20;16.30;99.90
41678;DHT22;27364;49.026;8.712;2022-09-09T03:07:46;16.30;99.90
41678;DHT22;27364;49.026;8.712;2022-09-09T03:10:12;16.30;99.90
41678;DHT22;27364;49.026;8.712;2022-09-09T03:12:37;16.30;99.90
41678;DHT22;27364;49.026;8.712;2022-09-09T03:15:05;16.30;99.90
41678;DHT22;27364;49.026;8.712;2022-09-09T03:17:30;16.30;99.90
41678;DHT22;27364;49.026;8.712;2022-09-09T03:19:56;16.20;99.90
41678;DHT22;27364;49.026;8.712;2022-09-09T03:22:24;16.10;99.90
41678;DHT22;27364;49.026;8.712;2022-09-09T03:24:51;15.90;99.90
41678;DHT22;27364;49.026;8.712;2022-09-09T03:27:17;15.90;99.90
41678;DHT22;27364;49.026;8.712;2022-09-09T03:29:43;15.80;99.90
41678;DHT22;27364;49.026;8.712;2022-09-09T03:32:09;15.70;99.90
41678;DHT22;27364;49.026;8.712;2022-09-09T03:34:36;15.70;99.90
41678;DHT22;27364;49.026;8.712;2022-09-09T03:37:04;15.70;99.90
41678;DHT22;27364;49.026;8.712;2022-09-09T03:39:31;15.70;99.90
41678;DHT22;27364;49.026;8.712;2022-09-09T03:41:56;15.60;99.90
41678;DHT22;27364;49.026;8.712;2022-09-09T03:44:22;15.60;99.90
41678;DHT22;27364;49.026;8.712;2022-09-09T03:46:47;15.50;99.90
41678;DHT22;27364;49.026;8.712;2022-09-09T03:49:13;15.50;99.90
41678;DHT22;27364;49.026;8.712;2022-09-09T03:51:39;15.40;99.90
41678;DHT22;27364;49.026;8.712;2022-09-09T03:54:05;15.30;99.90
41678;DHT22;27364;49.026;8.712;2022-09-09T03:56:34;15.30;99.90
41678;DHT22;27364;49.026;8.712;2022-09-09T03:58:59;15.30;99.90
41678;DHT22;27364;49.026;8.712;2022-09-09T04:01:25;15.20;99.90
41678;DHT22;27364;49.026;8.712;2022-09-09T04:03:50;15.20;99.90
41678;DHT22;27364;49.026;8.712;2022-09-09T04:06:18;15.10;99.90
41678;DHT22;27364;49.026;8.712;2022-09-09T04:08:45;15.10;99.90
41678;DHT22;27364;49.026;8.712;2022-09-09T04:11:15;15.10;99.90
41678;DHT22;27364;49.026;8.712;2022-09-09T04:13:40;15.00;99.90
41678;DHT22;27364;49.026;8.712;2022-09-09T04:16:07;15.00;99.90
41678;DHT22;27364;49.026;8.712;2022-09-09T04:18:33;15.00;99.90
41678;DHT22;27364;49.026;8.712;2022-09-09T04:20:59;15.00;99.90
41678;DHT22;27364;49.026;8.712;2022-09-09T04:23:27;14.90;99.90
41678;DHT22;27364;49.026;8.712;2022-09-09T04:25:58;14.90;99.90
41678;DHT22;27364;49.026;8.712;2022-09-09T04:28:26;14.80;99.90
41678;DHT22;27364;49.026;8.712;2022-09-09T04:30:52;14.80;99.90
41678;DHT22;27364;49.026;8.712;2022-09-09T04:33:18;14.80;99.90
41678;DHT22;27364;49.026;8.712;2022-09-09T04:35:49;14.90;99.90
41678;DHT22;27364;49.026;8.712;2022-09-09T04:38:16;14.90;99.90
41678;DHT22;27364;49.026;8.712;2022-09-09T04:40:43;15.00;99.90
41678;DHT22;27364;49.026;8.712;2022-09-09T04:43:09;15.00;99.90
41678;DHT22;27364;49.026;8.712;2022-09-09T04:45:36;15.00;99.90
41678;DHT22;27364;49.026;8.712;2022-09-09T04:48:02;14.90;99.90
41678;DHT22;27364;49.026;8.712;2022-09-09T04:50:28;14.90;99.90
41678;DHT22;27364;49.026;8.712;2022-09-09T04:52:54;14.90;99.90
41678;DHT22;27364;49.026;8.712;2022-09-09T04:55:19;14.80;99.90
41678;DHT22;27364;49.026;8.712;2022-09-09T04:57:45;14.90;99.90
41678;DHT22;27364;49.026;8.712;2022-09-09T05:00:11;14.90;99.90
41678;DHT22;27364;49.026;8.712;2022-09-09T05:02:38;14.90;99.90
41678;DHT22;27364;49.026;8.712;2022-09-09T05:05:05;14.90;99.90
41678;DHT22;27364;49.026;8.712;2022-09-09T05:07:31;14.90;99.90
41678;DHT22;27364;49.026;8.712;2022-09-09T05:09:57;15.00;99.90
41678;DHT22;27364;49.026;8.712;2022-09-09T05:12:23;15.00;99.90
41678;DHT22;27364;49.026;8.712;2022-09-09T05:14:51;15.00;99.90
41678;DHT22;27364;49.026;8.712;2022-09-09T05:17:16;15.00;99.90
41678;DHT22;27364;49.026;8.712;2022-09-09T05:19:42;15.00;99.90
41678;DHT22;27364;49.026;8.712;2022-09-09T05:22:08;15.00;99.90
41678;DHT22;27364;49.026;8.712;2022-09-09T05:24:34;15.00;99.90
41678;DHT22;27364;49.026;8.712;2022-09-09T05:26:59;15.00;99.90
41678;DHT22;27364;49.026;8.712;2022-09-09T05:29:27;15.00;99.90
41678;DHT22;27364;49.026;8.712;2022-09-09T05:31:53;15.00;99.90
41678;DHT22;27364;49.026;8.712;2022-09-09T05:34:19;15.00;99.90
41678;DHT22;27364;49.026;8.712;2022-09-09T05:36:46;15.10;99.90
41678;DHT22;27364;49.026;8.712;2022-09-09T05:39:12;15.10;99.90
41678;DHT22;27364;49.026;8.712;2022-09-09T05:41:37;15.10;99.90
41678;DHT22;27364;49.026;8.712;2022-09-09T05:44:03;15.10;99.90
41678;DHT22;27364;49.026;8.712;2022-09-09T05:46:29;15.10;99.90
41678;DHT22;27364;49.026;8.712;2022-09-09T05:48:55;15.20;99.90
41678;DHT22;27364;49.026;8.712;2022-09-09T05:51:23;15.20;99.90
41678;DHT22;27364;49.026;8.712;2022-09-09T05:53:50;15.30;99.90
41678;DHT22;27364;49.026;8.712;2022-09-09T05:56:21;15.20;99.90
41678;DHT22;27364;49.026;8.712;2022-09-09T05:58:49;15.30;99.90
41678;DHT22;27364;49.026;8.712;2022-09-09T06:01:18;15.30;99.90
41678;DHT22;27364;49.026;8.712;2022-09-09T06:03:45;15.40;99.90
41678;DHT22;27364;49.026;8.712;2022-09-09T06:06:14;15.50;99.90
41678;DHT22;27364;49.026;8.712;2022-09-09T06:08:42;15.50;99.90
41678;DHT22;27364;49.026;8.712;2022-09-09T06:11:21;15.60;99.90
41678;DHT22;27364;49.026;8.712;2022-09-09T06:13:48;15.70;99.90
41678;DHT22;27364;49.026;8.712;2022-09-09T06:16:18;15.60;99.90
41678;DHT22;27364;49.026;8.712;2022-09-09T06:18:44;15.70;99.90
41678;DHT22;27364;49.026;8.712;2022-09-09T06:21:18;15.70;99.90
41678;DHT22;27364;49.026;8.712;2022-09-09T06:23:45;15.70;99.90
41678;DHT22;27364;49.026;8.712;2022-09-09T06:26:14;15.60;99.90
41678;DHT22;27364;49.026;8.712;2022-09-09T06:28:40;15.70;99.90
41678;DHT22;27364;49.026;8.712;2022-09-09T06:31:09;15.80;99.90
41678;DHT22;27364;49.026;8.712;2022-09-09T06:33:37;15.90;99.90
41678;DHT22;27364;49.026;8.712;2022-09-09T06:36:07;15.90;99.90
41678;DHT22;27364;49.026;8.712;2022-09-09T06:38:35;16.10;99.90
41678;DHT22;27364;49.026;8.712;2022-09-09T06:41:01;16.20;99.90
41678;DHT22;27364;49.026;8.712;2022-09-09T06:43:27;16.30;99.90
41678;DHT22;27364;49.026;8.712;2022-09-09T06:46:05;16.50;99.90
41678;DHT22;27364;49.026;8.712;2022-09-09T06:48:31;16.60;99.90
41678;DHT22;27364;49.026;8.712;2022-09-09T06:53:40;16.80;99.90
41678;DHT22;27364;49.026;8.712;2022-09-09T06:56:22;16.80;99.90
41678;DHT22;27364;49.026;8.712;2022-09-09T06:58:51;16.80;99.90
41678;DHT22;27364;49.026;8.712;2022-09-09T07:01:20;16.90;99.90
41678;DHT22;27364;49.026;8.712;2022-09-09T07:03:48;16.90;99.90
41678;DHT22;27364;49.026;8.712;2022-09-09T07:06:19;16.90;99.90
41678;DHT22;27364;49.026;8.712;2022-09-09T07:08:49;17.00;99.90
41678;DHT22;27364;49.026;8.712;2022-09-09T07:11:16;17.00;99.90
41678;DHT22;27364;49.026;8.712;2022-09-09T07:13:41;17.10;99.90
41678;DHT22;27364;49.026;8.712;2022-09-09T07:16:10;17.10;99.90
41678;DHT22;27364;49.026;8.712;2022-09-09T07:18:36;17.10;99.90
41678;DHT22;27364;49.026;8.712;2022-09-09T07:21:03;17.10;99.90
41678;DHT22;27364;49.026;8.712;2022-09-09T07:23:29;17.20;99.90
41678;DHT22;27364;49.026;8.712;2022-09-09T07:25:55;17.30;99.90
41678;DHT22;27364;49.026;8.712;2022-09-09T07:28:21;17.30;99.90
41678;DHT22;27364;49.026;8.712;2022-09-09T07:30:56;17.40;99.90
41678;DHT22;27364;49.026;8.712;2022-09-09T07:33:23;17.40;99.90
41678;DHT22;27364;49.026;8.712;2022-09-09T07:35:49;17.50;99.90
41678;DHT22;27364;49.026;8.712;2022-09-09T07:38:15;17.60;99.90
41678;DHT22;27364;49.026;8.712;2022-09-09T07:40:41;17.70;99.90
41678;DHT22;27364;49.026;8.712;2022-09-09T07:43:07;17.80;99.90
41678;DHT22;27364;49.026;8.712;2022-09-09T07:45:34;17.90;99.90
41678;DHT22;27364;49.026;8.712;2022-09-09T07:48:00;17.90;99.90
41678;DHT22;27364;49.026;8.712;2022-09-09T07:50:25;18.00;99.90
41678;DHT22;27364;49.026;8.712;2022-09-09T07:52:52;18.00;99.90
41678;DHT22;27364;49.026;8.712;2022-09-09T07:55:22;18.00;99.90
41678;DHT22;27364;49.026;8.712;2022-09-09T07:57:51;17.90;99.90
41678;DHT22;27364;49.026;8.712;2022-09-09T08:00:17;17.90;99.90
41678;DHT22;27364;49.026;8.712;2022-09-09T08:02:44;17.90;99.90
41678;DHT22;27364;49.026;8.712;2022-09-09T08:05:09;17.90;99.90
41678;DHT22;27364;49.026;8.712;2022-09-09T08:07:35;18.00;99.90
41678;DHT22;27364;49.026;8.712;2022-09-09T08:10:01;18.00;99.90
41678;DHT22;27364;49.026;8.712;2022-09-09T08:12:27;18.00;99.90
41678;DHT22;27364;49.026;8.712;2022-09-09T08:14:53;18.10;99.90
41678;DHT22;27364;49.026;8.712;2022-09-09T08:17:19;18.20;99.90
41678;DHT22;27364;49.026;8.712;2022-09-09T08:19:45;18.30;99.90
41678;DHT22;27364;49.026;8.712;2022-09-09T08:22:10;18.40;99.90
41678;DHT22;27364;49.026;8.712;2022-09-09T08:24:36;18.40;99.90
41678;DHT22;27364;49.026;8.712;2022-09-09T08:27:02;18.50;99.90
41678;DHT22;27364;49.026;8.712;2022-09-09T08:29:28;18.50;99.90
41678;DHT22;27364;49.026;8.712;2022-09-09T08:31:57;18.70;99.90
41678;DHT22;27364;49.026;8.712;2022-09-09T08:34:24;18.80;99.90
41678;DHT22;27364;49.026;8.712;2022-09-09T08:36:53;18.90;99.90
41678;DHT22;27364;49.026;8.712;2022-09-09T08:39:20;19.00;99.90
41678;DHT22;27364;49.026;8.712;2022-09-09T08:42:13;19.10;99.90
41678;DHT22;27364;49.026;8.712;2022-09-09T08:45:21;19.40;99.90
41678;DHT22;27364;49.026;8.712;2022-09-09T08:48:30;19.40;99.90
41678;DHT22;27364;49.026;8.712;2022-09-09T08:50:58;19.70;99.90
41678;DHT22;27364;49.026;8.712;2022-09-09T08:53:30;19.90;99.90
41678;DHT22;27364;49.026;8.712;2022-09-09T08:56:08;20.00;99.90
41678;DHT22;27364;49.026;8.712;2022-09-09T08:58:35;20.00;99.90
41678;DHT22;27364;49.026;8.712;2022-09-09T09:06:40;18.90;99.90
41678;DHT22;27364;49.026;8.712;2022-09-09T09:11:59;18.20;99.90
41678;DHT22;27364;49.026;8.712;2022-09-09T09:14:28;18.20;99.90
41678;DHT22;27364;49.026;8.712;2022-09-09T09:17:04;18.30;99.90
41678;DHT22;27364;49.026;8.712;2022-09-09T09:19:34;18.50;99.90
41678;DHT22;27364;49.026;8.712;2022-09-09T09:22:10;18.70;99.90
41678;DHT22;27364;49.026;8.712;2022-09-09T09:31:04;19.40;99.90
41678;DHT22;27364;49.026;8.712;2022-09-09T09:36:09;19.40;99.90
41678;DHT22;27364;49.026;8.712;2022-09-09T09:38:36;19.30;99.90
41678;DHT22;27364;49.026;8.712;2022-09-09T09:41:02;19.10;99.90
41678;DHT22;27364;49.026;8.712;2022-09-09T09:43:34;19.20;99.90
41678;DHT22;27364;49.026;8.712;2022-09-09T09:46:00;19.30;99.90
41678;DHT22;27364;49.026;8.712;2022-09-09T09:48:28;19.60;99.90
41678;DHT22;27364;49.026;8.712;2022-09-09T09:50:56;19.70;99.90
41678;DHT22;27364;49.026;8.712;2022-09-09T09:53:33;19.80;99.90
41678;DHT22;27364;49.026;8.712;2022-09-09T09:56:03;19.70;99.90
41678;DHT22;27364;49.026;8.712;2022-09-09T09:58:33;19.70;99.90
41678;DHT22;27364;49.026;8.712;2022-09-09T10:01:00;19.60;99.90
41678;DHT22;27364;49.026;8.712;2022-09-09T10:03:34;19.60;99.90
41678;DHT22;27364;49.026;8.712;2022-09-09T10:06:06;19.80;99.90
41678;DHT22;27364;49.026;8.712;2022-09-09T10:08:43;19.90;99.90
41678;DHT22;27364;49.026;8.712;2022-09-09T10:11:28;20.20;99.90
41678;DHT22;27364;49.026;8.712;2022-09-09T10:16:58;20.60;99.90
41678;DHT22;27364;49.026;8.712;2022-09-09T10:19:33;20.80;99.90
41678;DHT22;27364;49.026;8.712;2022-09-09T10:22:16;21.00;99.90
41678;DHT22;27364;49.026;8.712;2022-09-09T10:25:07;21.20;99.90
41678;DHT22;27364;49.026;8.712;2022-09-09T10:27:50;21.20;99.90
41678;DHT22;27364;49.026;8.712;2022-09-09T10:30:31;21.30;99.90
41678;DHT22;27364;49.026;8.712;2022-09-09T10:38:47;20.70;99.90
41678;DHT22;27364;49.026;8.712;2022-09-09T10:41:26;20.80;99.90
41678;DHT22;27364;49.026;8.712;2022-09-09T10:44:17;20.70;99.90
41678;DHT22;27364;49.026;8.712;2022-09-09T10:55:10;21.40;99.90
41678;DHT22;27364;49.026;8.712;2022-09-09T10:57:45;21.20;99.90
41678;DHT22;27364;49.026;8.712;2022-09-09T11:00:38;21.10;99.90
41678;DHT22;27364;49.026;8.712;2022-09-09T11:03:05;21.00;99.90
41678;DHT22;27364;49.026;8.712;2022-09-09T11:05:39;21.10;99.90
41678;DHT22;27364;49.026;8.712;2022-09-09T11:08:26;21.10;99.90
41678;DHT22;27364;49.026;8.712;2022-09-09T11:19:35;21.50;99.90
41678;DHT22;27364;49.026;8.712;2022-09-09T11:22:27;21.60;99.80
41678;DHT22;27364;49.026;8.712;2022-09-09T11:25:06;21.50;99.90
41678;DHT22;27364;49.026;8.712;2022-09-09T11:27:38;21.30;99.10
41678;DHT22;27364;49.026;8.712;2022-09-09T11:30:18;21.10;99.90
41678;DHT22;27364;49.026;8.712;2022-09-09T11:38:26;20.60;99.90
41678;DHT22;27364;49.026;8.712;2022-09-09T11:41:10;20.60;99.90
41678;DHT22;27364;49.026;8.712;2022-09-09T11:46:07;20.50;99.90
41678;DHT22;27364;49.026;8.712;2022-09-09T11:48:37;20.60;99.90
41678;DHT22;27364;49.026;8.712;2022-09-09T11:51:10;20.60;99.90
41678;DHT22;27364;49.026;8.712;2022-09-09T11:53:47;20.60;99.90
41678;DHT22;27364;49.026;8.712;2022-09-09T11:56:42;20.60;99.90
41678;DHT22;27364;49.026;8.712;2022-09-09T11:59:22;21.10;99.90
41678;DHT22;27364;49.026;8.712;2022-09-09T12:04:54;21.80;98.90
41678;DHT22;27364;49.026;8.712;2022-09-09T12:07:30;22.10;97.70
41678;DHT22;27364;49.026;8.712;2022-09-09T12:12:44;22.50;95.30
41678;DHT22;27364;49.026;8.712;2022-09-09T12:26:01;22.90;93.60
41678;DHT22;27364;49.026;8.712;2022-09-09T12:28:41;23.20;91.00
41678;DHT22;27364;49.026;8.712;2022-09-09T12:31:51;23.30;89.70
41678;DHT22;27364;49.026;8.712;2022-09-09T12:34:47;23.30;90.20
41678;DHT22;27364;49.026;8.712;2022-09-09T12:39:59;23.40;90.40
41678;DHT22;27364;49.026;8.712;2022-09-09T12:42:26;23.40;88.10
41678;DHT22;27364;49.026;8.712;2022-09-09T12:45:03;23.50;88.30
41678;DHT22;27364;49.026;8.712;2022-09-09T12:47:37;23.50;90.00
41678;DHT22;27364;49.026;8.712;2022-09-09T12:50:27;23.70;83.90
41678;DHT22;27364;49.026;8.712;2022-09-09T12:53:07;23.80;84.40
41678;DHT22;27364;49.026;8.712;2022-09-09T12:55:36;23.80;84.00
41678;DHT22;27364;49.026;8.712;2022-09-09T12:58:04;23.40;81.30
41678;DHT22;27364;49.026;8.712;2022-09-09T13:00:32;23.00;82.50
41678;DHT22;27364;49.026;8.712;2022-09-09T13:03:02;22.80;85.70
41678;DHT22;27364;49.026;8.712;2022-09-09T13:05:36;22.60;86.70
41678;DHT22;27364;49.026;8.712;2022-09-09T13:08:03;22.30;85.20
41678;DHT22;27364;49.026;8.712;2022-09-09T13:10:31;22.00;86.80
41678;DHT22;27364;49.026;8.712;2022-09-09T13:12:58;21.90;89.00
41678;DHT22;27364;49.026;8.712;2022-09-09T13:15:29;21.70;89.80
41678;DHT22;27364;49.026;8.712;2022-09-09T13:18:00;21.70;88.90
41678;DHT22;27364;49.026;8.712;2022-09-09T13:20:29;21.70;90.30
41678;DHT22;27364;49.026;8.712;2022-09-09T13:22:56;21.80;90.20
41678;DHT22;27364;49.026;8.712;2022-09-09T13:25:27;21.80;82.80
41678;DHT22;27364;49.026;8.712;2022-09-09T13:28:02;21.70;82.40
41678;DHT22;27364;49.026;8.712;2022-09-09T13:30:36;21.60;84.40
41678;DHT22;27364;49.026;8.712;2022-09-09T13:38:18;21.60;86.70
41678;DHT22;27364;49.026;8.712;2022-09-09T13:40:58;21.50;87.80
41678;DHT22;27364;49.026;8.712;2022-09-09T13:43:28;21.50;89.60
41678;DHT22;27364;49.026;8.712;2022-09-09T13:46:35;21.50;90.80
41678;DHT22;27364;49.026;8.712;2022-09-09T13:51:41;21.50;91.50
41678;DHT22;27364;49.026;8.712;2022-09-09T13:54:11;21.40;91.80
41678;DHT22;27364;49.026;8.712;2022-09-09T13:56:39;21.30;92.30
41678;DHT22;27364;49.026;8.712;2022-09-09T13:59:06;21.40;93.30
41678;DHT22;27364;49.026;8.712;2022-09-09T14:01:34;21.60;93.40
41678;DHT22;27364;49.026;8.712;2022-09-09T14:04:00;21.70;93.00
41678;DHT22;27364;49.026;8.712;2022-09-09T14:06:26;21.60;93.20
41678;DHT22;27364;49.026;8.712;2022-09-09T14:08:53;21.50;93.10
41678;DHT22;27364;49.026;8.712;2022-09-09T14:11:20;21.40;93.90
41678;DHT22;27364;49.026;8.712;2022-09-09T14:13:47;21.40;94.70
41678;DHT22;27364;49.026;8.712;2022-09-09T14:16:12;21.50;94.10
41678;DHT22;27364;49.026;8.712;2022-09-09T14:18:39;21.30;94.00
41678;DHT22;27364;49.026;8.712;2022-09-09T14:21:04;21.20;94.10
41678;DHT22;27364;49.026;8.712;2022-09-09T14:23:30;21.10;95.10
41678;DHT22;27364;49.026;8.712;2022-09-09T14:25:56;21.00;95.40
41678;DHT22;27364;49.026;8.712;2022-09-09T14:28:21;21.00;95.70
41678;DHT22;27364;49.026;8.712;2022-09-09T14:30:47;21.10;96.60
41678;DHT22;27364;49.026;8.712;2022-09-09T14:33:15;21.50;96.60
41678;DHT22;27364;49.026;8.712;2022-09-09T14:35:41;22.20;95.60
41678;DHT22;27364;49.026;8.712;2022-09-09T14:38:08;22.50;94.90
41678;DHT22;27364;49.026;8.712;2022-09-09T14:40:35;22.90;94.30
41678;DHT22;27364;49.026;8.712;2022-09-09T14:43:01;23.10;87.10
41678;DHT22;27364;49.026;8.712;2022-09-09T14:45:27;23.30;80.20
41678;DHT22;27364;49.026;8.712;2022-09-09T14:47:54;23.30;79.60
41678;DHT22;27364;49.026;8.712;2022-09-09T14:50:20;23.40;79.60
41678;DHT22;27364;49.026;8.712;2022-09-09T14:52:47;23.20;79.20
41678;DHT22;27364;49.026;8.712;2022-09-09T14:55:13;22.90;79.50
41678;DHT22;27364;49.026;8.712;2022-09-09T14:57:39;22.60;82.70
41678;DHT22;27364;49.026;8.712;2022-09-09T15:00:06;22.30;82.50
41678;DHT22;27364;49.026;8.712;2022-09-09T15:02:32;22.10;88.60
41678;DHT22;27364;49.026;8.712;2022-09-09T15:04:58;21.80;91.70
41678;DHT22;27364;49.026;8.712;2022-09-09T15:07:24;21.50;93.30
41678;DHT22;27364;49.026;8.712;2022-09-09T15:09:50;21.40;94.70
41678;DHT22;27364;49.026;8.712;2022-09-09T15:12:18;21.20;94.80
41678;DHT22;27364;49.026;8.712;2022-09-09T15:14:47;21.10;95.80
41678;DHT22;27364;49.026;8.712;2022-09-09T15:17:13;21.00;96.40
41678;DHT22;27364;49.026;8.712;2022-09-09T15:19:39;20.90;96.30
41678;DHT22;27364;49.026;8.712;2022-09-09T15:22:05;20.80;96.10
41678;DHT22;27364;49.026;8.712;2022-09-09T15:24:32;20.80;96.20
41678;DHT22;27364;49.026;8.712;2022-09-09T15:26:58;20.80;95.90
41678;DHT22;27364;49.026;8.712;2022-09-09T15:29:24;20.70;96.10
41678;DHT22;27364;49.026;8.712;2022-09-09T15:31:49;20.60;96.40
41678;DHT22;27364;49.026;8.712;2022-09-09T15:34:15;20.40;97.20
41678;DHT22;27364;49.026;8.712;2022-09-09T15:36:43;20.30;97.90
41678;DHT22;27364;49.026;8.712;2022-09-09T15:39:11;20.20;98.10
41678;DHT22;27364;49.026;8.712;2022-09-09T15:41:41;20.10;97.90
41678;DHT22;27364;49.026;8.712;2022-09-09T15:44:08;20.10;98.50
41678;DHT22;27364;49.026;8.712;2022-09-09T15:46:48;20.00;98.60
41678;DHT22;27364;49.026;8.712;2022-09-09T15:49:23;20.00;98.90
41678;DHT22;27364;49.026;8.712;2022-09-09T15:52:00;19.90;98.20
41678;DHT22;27364;49.026;8.712;2022-09-09T15:54:35;19.90;97.90
41678;DHT22;27364;49.026;8.712;2022-09-09T15:57:03;19.90;98.10
41678;DHT22;27364;49.026;8.712;2022-09-09T15:59:30;19.80;98.50
41678;DHT22;27364;49.026;8.712;2022-09-09T16:01:56;19.70;98.70
41678;DHT22;27364;49.026;8.712;2022-09-09T16:04:24;19.60;99.40
41678;DHT22;27364;49.026;8.712;2022-09-09T16:07:01;19.80;99.90
41678;DHT22;27364;49.026;8.712;2022-09-09T16:09:28;19.70;99.90
41678;DHT22;27364;49.026;8.712;2022-09-09T16:11:59;19.80;99.90
41678;DHT22;27364;49.026;8.712;2022-09-09T16:14:26;19.80;99.90
41678;DHT22;27364;49.026;8.712;2022-09-09T16:16:52;19.80;99.90
41678;DHT22;27364;49.026;8.712;2022-09-09T16:19:19;19.80;99.90
41678;DHT22;27364;49.026;8.712;2022-09-09T16:21:46;19.60;99.90
41678;DHT22;27364;49.026;8.712;2022-09-09T16:24:15;19.60;99.90
41678;DHT22;27364;49.026;8.712;2022-09-09T16:26:47;19.40;99.90
41678;DHT22;27364;49.026;8.712;2022-09-09T16:29:14;19.30;99.90
41678;DHT22;27364;49.026;8.712;2022-09-09T16:31:41;19.20;99.90
41678;DHT22;27364;49.026;8.712;2022-09-09T16:34:07;19.20;99.90
41678;DHT22;27364;49.026;8.712;2022-09-09T16:36:35;19.00;99.90
41678;DHT22;27364;49.026;8.712;2022-09-09T16:39:04;19.00;99.90
41678;DHT22;27364;49.026;8.712;2022-09-09T16:41:30;18.90;99.90
41678;DHT22;27364;49.026;8.712;2022-09-09T16:44:02;18.80;99.90
41678;DHT22;27364;49.026;8.712;2022-09-09T16:46:29;18.80;99.90
41678;DHT22;27364;49.026;8.712;2022-09-09T16:48:59;18.80;99.90
41678;DHT22;27364;49.026;8.712;2022-09-09T16:51:31;18.70;99.90
41678;DHT22;27364;49.026;8.712;2022-09-09T16:53:59;18.60;99.90
41678;DHT22;27364;49.026;8.712;2022-09-09T16:56:28;18.70;99.90
41678;DHT22;27364;49.026;8.712;2022-09-09T16:58:56;18.60;99.90
41678;DHT22;27364;49.026;8.712;2022-09-09T17:01:23;18.60;99.90
41678;DHT22;27364;49.026;8.712;2022-09-09T17:04:00;18.50;99.90
41678;DHT22;27364;49.026;8.712;2022-09-09T17:06:26;18.50;99.90
41678;DHT22;27364;49.026;8.712;2022-09-09T17:09:01;18.40;99.90
41678;DHT22;27364;49.026;8.712;2022-09-09T17:11:27;18.40;99.90
41678;DHT22;27364;49.026;8.712;2022-09-09T17:13:54;18.30;99.90
41678;DHT22;27364;49.026;8.712;2022-09-09T17:16:22;18.30;99.90
41678;DHT22;27364;49.026;8.712;2022-09-09T17:18:49;18.30;99.90
41678;DHT22;27364;49.026;8.712;2022-09-09T17:21:17;18.30;99.90
41678;DHT22;27364;49.026;8.712;2022-09-09T17:23:44;18.20;99.90
41678;DHT22;27364;49.026;8.712;2022-09-09T17:26:13;18.20;99.90
41678;DHT22;27364;49.026;8.712;2022-09-09T17:28:40;18.10;99.90
41678;DHT22;27364;49.026;8.712;2022-09-09T17:31:08;18.20;99.90
41678;DHT22;27364;49.026;8.712;2022-09-09T17:33:36;18.10;99.90
41678;DHT22;27364;49.026;8.712;2022-09-09T17:36:08;18.20;99.90
41678;DHT22;27364;49.026;8.712;2022-09-09T17:38:34;18.20;99.90
41678;DHT22;27364;49.026;8.712;2022-09-09T17:41:08;18.10;99.90
41678;DHT22;27364;49.026;8.712;2022-09-09T17:43:34;18.10;99.90
41678;DHT22;27364;49.026;8.712;2022-09-09T17:49:12;18.00;99.90
41678;DHT22;27364;49.026;8.712;2022-09-09T17:51:39;17.90;99.90
41678;DHT22;27364;49.026;8.712;2022-09-09T17:54:10;17.90;99.90
41678;DHT22;27364;49.026;8.712;2022-09-09T17:56:38;17.80;99.90
41678;DHT22;27364;49.026;8.712;2022-09-09T17:59:06;17.90;99.90
41678;DHT22;27364;49.026;8.712;2022-09-09T18:01:33;17.80;99.90
41678;DHT22;27364;49.026;8.712;2022-09-09T18:04:02;17.70;99.90
41678;DHT22;27364;49.026;8.712;2022-09-09T18:06:32;17.60;99.90
41678;DHT22;27364;49.026;8.712;2022-09-09T18:09:01;17.60;99.90
41678;DHT22;27364;49.026;8.712;2022-09-09T18:11:30;17.50;99.90
41678;DHT22;27364;49.026;8.712;2022-09-09T18:14:00;17.50;99.90
41678;DHT22;27364;49.026;8.712;2022-09-09T18:16:29;17.50;99.90
41678;DHT22;27364;49.026;8.712;2022-09-09T18:18:55;17.50;99.90
41678;DHT22;27364;49.026;8.712;2022-09-09T18:21:23;17.50;99.90
41678;DHT22;27364;49.026;8.712;2022-09-09T18:23:52;17.40;99.90
41678;DHT22;27364;49.026;8.712;2022-09-09T18:26:23;17.30;99.90
41678;DHT22;27364;49.026;8.712;2022-09-09T18:28:56;17.30;99.90
41678;DHT22;27364;49.026;8.712;2022-09-09T18:31:24;17.20;99.90
41678;DHT22;27364;49.026;8.712;2022-09-09T18:33:50;17.20;99.90
41678;DHT22;27364;49.026;8.712;2022-09-09T18:36:19;17.20;99.90
41678;DHT22;27364;49.026;8.712;2022-09-09T18:38:45;17.20;99.90
41678;DHT22;27364;49.026;8.712;2022-09-09T18:41:19;17.20;99.90
41678;DHT22;27364;49.026;8.712;2022-09-09T18:43:50;17.20;99.90
41678;DHT22;27364;49.026;8.712;2022-09-09T18:46:17;17.10;99.90
41678;DHT22;27364;49.026;8.712;2022-09-09T18:48:44;17.10;99.90
41678;DHT22;27364;49.026;8.712;2022-09-09T18:51:11;17.10;99.90
41678;DHT22;27364;49.026;8.712;2022-09-09T18:53:38;17.10;99.90
41678;DHT22;27364;49.026;8.712;2022-09-09T18:56:11;17.10;99.90
41678;DHT22;27364;49.026;8.712;2022-09-09T18:58:38;17.00;99.90
41678;DHT22;27364;49.026;8.712;2022-09-09T19:01:08;16.80;99.90
41678;DHT22;27364;49.026;8.712;2022-09-09T19:03:35;16.70;99.90
41678;DHT22;27364;49.026;8.712;2022-09-09T19:06:12;16.70;99.90
41678;DHT22;27364;49.026;8.712;2022-09-09T19:08:40;16.70;99.90
41678;DHT22;27364;49.026;8.712;2022-09-09T19:11:08;16.60;99.90
41678;DHT22;27364;49.026;8.712;2022-09-09T19:13:35;16.60;99.90